Webcam

2017/11/20 03:20 EBBR 200320Z 22007KT CAVOK 03/01 Q1021 NOSIG

Webcam

--- Refresh now ---